createdAt,value
2023-05-10T00:01:59.685Z,62.27
2023-05-10T00:04:28.449Z,60.46
2023-05-10T00:06:55.811Z,57.37
2023-05-10T00:09:22.429Z,56.01
2023-05-10T00:11:48.965Z,56.65
2023-05-10T00:14:15.507Z,57.57
2023-05-10T00:16:42.114Z,58.75
2023-05-10T00:19:08.868Z,59.23
2023-05-10T00:21:35.431Z,60.00
2023-05-10T00:24:01.951Z,60.42
2023-05-10T00:26:28.493Z,61.09
2023-05-10T00:28:55.406Z,62.98
2023-05-10T00:31:21.962Z,63.28
2023-05-10T00:33:48.473Z,61.30
2023-05-10T00:36:15.059Z,58.28
2023-05-10T00:38:41.613Z,57.63
2023-05-10T00:41:08.350Z,58.10
2023-05-10T00:43:35.672Z,58.61
2023-05-10T00:46:05.265Z,60.08
2023-05-10T00:48:32.896Z,60.70
2023-05-10T00:50:59.570Z,61.17
2023-05-10T00:53:26.537Z,61.16
2023-05-10T00:55:53.417Z,61.29
2023-05-10T00:58:20.059Z,63.54
2023-05-10T01:00:47.339Z,64.08
2023-05-10T01:03:14.085Z,62.13
2023-05-10T01:05:41.518Z,58.59
2023-05-10T01:08:09.615Z,57.23
2023-05-10T01:10:36.443Z,57.70
2023-05-10T01:13:04.129Z,58.66
2023-05-10T01:15:32.183Z,59.54
2023-05-10T01:17:59.664Z,60.12
2023-05-10T01:20:31.715Z,60.47
2023-05-10T01:23:23.115Z,60.80
2023-05-10T01:26:14.932Z,61.78
2023-05-10T01:29:04.747Z,64.40
2023-05-10T01:31:49.991Z,63.32
2023-05-10T01:34:21.872Z,61.18
2023-05-10T01:36:56.305Z,56.83
2023-05-10T01:39:47.995Z,56.02
2023-05-10T01:42:32.774Z,56.66
2023-05-10T01:45:01.910Z,57.51
2023-05-10T01:47:33.877Z,58.15
2023-05-10T01:50:03.565Z,58.60
2023-05-10T01:52:42.798Z,59.48
2023-05-10T01:55:14.320Z,59.77
2023-05-10T01:57:43.591Z,60.79
2023-05-10T02:00:12.384Z,61.04
2023-05-10T02:02:46.151Z,61.38
2023-05-10T02:05:16.032Z,61.25
2023-05-10T02:07:43.502Z,61.73
2023-05-10T02:10:11.550Z,62.36
2023-05-10T02:12:42.581Z,64.71
2023-05-10T02:15:11.438Z,63.41
2023-05-10T02:17:39.850Z,60.75
2023-05-10T02:20:08.680Z,57.79
2023-05-10T02:22:36.783Z,56.71
2023-05-10T02:25:04.556Z,57.41
2023-05-10T02:27:31.705Z,57.98
2023-05-10T02:29:59.102Z,58.72
2023-05-10T02:32:28.656Z,59.86
2023-05-10T02:34:58.164Z,60.04
2023-05-10T02:37:26.425Z,61.33
2023-05-10T02:39:56.056Z,63.35
2023-05-10T02:42:28.818Z,63.72
2023-05-10T02:45:02.496Z,59.62
2023-05-10T02:47:30.768Z,57.30
2023-05-10T02:49:57.379Z,57.67
2023-05-10T02:52:28.341Z,58.22
2023-05-10T02:55:04.117Z,59.85
2023-05-10T02:57:34.904Z,59.93
2023-05-10T03:00:04.327Z,60.84
2023-05-10T03:02:32.187Z,63.46
2023-05-10T03:04:59.537Z,63.83
2023-05-10T03:07:26.660Z,61.66
2023-05-10T03:09:53.508Z,58.68
2023-05-10T03:12:53.587Z,57.04
2023-05-10T03:15:24.188Z,57.11
2023-05-10T03:18:04.776Z,58.07
2023-05-10T03:20:44.699Z,58.91
2023-05-10T03:23:23.617Z,59.78
2023-05-10T03:25:51.827Z,59.74
2023-05-10T03:28:20.255Z,60.24
2023-05-10T03:30:47.570Z,60.92
2023-05-10T03:33:15.130Z,61.27
2023-05-10T03:35:45.088Z,60.90
2023-05-10T03:38:11.614Z,61.64
2023-05-10T03:40:38.447Z,61.62
2023-05-10T03:43:05.163Z,61.71
2023-05-10T03:45:31.974Z,62.00
2023-05-10T03:48:04.849Z,61.47
2023-05-10T03:50:34.089Z,61.72
2023-05-10T03:53:00.748Z,61.88
2023-05-10T03:55:27.908Z,61.77
2023-05-10T03:57:54.981Z,61.54
2023-05-10T04:00:22.220Z,61.68
2023-05-10T04:02:50.269Z,61.54
2023-05-10T04:05:19.243Z,61.18
2023-05-10T04:07:45.869Z,61.07
2023-05-10T04:10:12.819Z,61.14
2023-05-10T04:12:39.377Z,61.05
2023-05-10T04:15:07.572Z,60.89
2023-05-10T04:17:34.239Z,60.74
2023-05-10T04:20:00.887Z,60.62
2023-05-10T04:22:28.742Z,60.48
2023-05-10T04:24:55.314Z,59.95
2023-05-10T04:27:21.974Z,60.04
2023-05-10T04:29:49.193Z,59.79
2023-05-10T04:32:17.347Z,59.55
2023-05-10T04:34:44.538Z,59.06
2023-05-10T04:37:11.247Z,58.56
2023-05-10T04:39:38.839Z,58.65
2023-05-10T04:42:06.791Z,58.38
2023-05-10T04:44:33.808Z,57.84
2023-05-10T04:47:01.212Z,57.56
2023-05-10T04:49:27.796Z,57.41
2023-05-10T04:51:54.336Z,57.31
2023-05-10T04:54:20.979Z,56.83
2023-05-10T04:56:47.538Z,56.47
2023-05-10T04:59:14.255Z,55.39
2023-05-10T05:01:40.822Z,55.52
2023-05-10T05:04:08.015Z,54.37
2023-05-10T05:06:34.689Z,55.20
2023-05-10T05:09:01.225Z,54.27
2023-05-10T05:11:27.973Z,54.30
2023-05-10T05:13:54.619Z,53.40
2023-05-10T05:16:21.162Z,53.22
2023-05-10T05:18:47.886Z,52.95
2023-05-10T05:21:19.415Z,52.58
2023-05-10T05:23:46.523Z,52.52
2023-05-10T05:26:13.073Z,51.98
2023-05-10T05:28:39.703Z,51.23
2023-05-10T05:31:08.756Z,51.45
2023-05-10T05:33:35.853Z,51.25
2023-05-10T05:36:03.985Z,51.19
2023-05-10T05:38:30.609Z,50.75
2023-05-10T05:40:57.166Z,49.49
2023-05-10T05:43:23.798Z,49.60
2023-05-10T05:45:50.683Z,49.28
2023-05-10T05:48:17.241Z,49.03
2023-05-10T05:50:43.825Z,48.52
2023-05-10T05:53:10.846Z,47.62
2023-05-10T05:55:37.551Z,47.31
2023-05-10T05:58:04.249Z,46.95
2023-05-10T06:00:30.832Z,48.12
2023-05-10T06:02:58.192Z,47.16
2023-05-10T06:05:24.872Z,46.66
2023-05-10T06:07:51.426Z,46.11
2023-05-10T06:10:18.006Z,47.03
2023-05-10T06:12:44.622Z,45.64
2023-05-10T06:15:11.509Z,45.55
2023-05-10T06:17:38.026Z,46.07
2023-05-10T06:20:05.005Z,46.27
2023-05-10T06:22:31.522Z,44.77
2023-05-10T06:24:59.642Z,44.14
2023-05-10T06:27:26.262Z,43.18
2023-05-10T06:30:02.161Z,42.18
2023-05-10T06:32:32.407Z,42.37
2023-05-10T06:34:59.134Z,42.53
2023-05-10T06:37:25.776Z,42.98
2023-05-10T06:39:52.527Z,43.77
2023-05-10T06:42:19.144Z,42.15
2023-05-10T06:44:46.468Z,41.36
2023-05-10T06:47:13.352Z,41.61
2023-05-10T06:49:39.941Z,38.37
2023-05-10T06:52:06.461Z,35.45
2023-05-10T06:54:33.067Z,32.64
2023-05-10T06:57:01.209Z,31.76
2023-05-10T06:59:28.680Z,30.07
2023-05-10T07:01:55.864Z,28.77
2023-05-10T07:04:22.647Z,27.17
2023-05-10T07:06:50.781Z,24.93
2023-05-10T07:09:17.466Z,23.48
2023-05-10T07:11:44.096Z,24.73
2023-05-10T07:14:10.952Z,22.86
2023-05-10T07:16:37.851Z,21.25
2023-05-10T07:19:06.317Z,20.75
2023-05-10T07:21:33.262Z,19.05
2023-05-10T07:24:01.288Z,18.76
2023-05-10T07:26:27.898Z,19.63
2023-05-10T07:28:54.451Z,20.71
2023-05-10T07:31:21.108Z,20.26
2023-05-10T07:33:47.632Z,20.54
2023-05-10T07:36:14.205Z,20.69
2023-05-10T07:38:41.402Z,19.94
2023-05-10T07:41:08.205Z,20.59
2023-05-10T07:43:34.746Z,21.27
2023-05-10T07:46:02.432Z,20.02
2023-05-10T07:49:49.248Z,19.11
2023-05-10T07:52:16.423Z,19.41
2023-05-10T07:54:42.995Z,19.94
2023-05-10T07:57:09.869Z,20.20
2023-05-10T07:59:36.530Z,20.03
2023-05-10T08:02:03.205Z,18.85
2023-05-10T08:04:29.883Z,17.85
2023-05-10T08:06:56.634Z,18.18
2023-05-10T08:09:25.139Z,16.65
2023-05-10T08:11:52.070Z,16.01
2023-05-10T08:14:19.165Z,15.10
2023-05-10T08:16:45.787Z,15.33
2023-05-10T08:19:12.482Z,15.40
2023-05-10T08:21:39.469Z,16.23
2023-05-10T08:24:06.693Z,17.49
2023-05-10T08:26:33.608Z,18.48
2023-05-10T08:29:00.322Z,18.04
2023-05-10T08:31:26.887Z,17.50
2023-05-10T08:33:53.786Z,16.68
2023-05-10T08:36:25.227Z,17.45
2023-05-10T08:38:53.089Z,16.78
2023-05-10T08:41:25.557Z,17.45
2023-05-10T08:43:56.188Z,16.44
2023-05-10T08:46:24.832Z,15.85
2023-05-10T08:48:53.556Z,15.64
2023-05-10T08:51:26.251Z,15.44
2023-05-10T08:53:53.407Z,16.41
2023-05-10T08:56:21.850Z,16.91
2023-05-10T08:58:48.548Z,16.64
2023-05-10T09:01:17.295Z,16.40
2023-05-10T09:03:44.753Z,16.59
2023-05-10T09:06:14.292Z,15.65
2023-05-10T09:08:43.839Z,15.46
2023-05-10T09:11:10.914Z,16.16
2023-05-10T09:13:40.423Z,15.74
2023-05-10T09:16:19.906Z,16.59
2023-05-10T09:18:48.273Z,15.54
2023-05-10T09:21:14.869Z,15.09
2023-05-10T09:23:48.221Z,15.45
2023-05-10T09:26:15.677Z,16.07
2023-05-10T09:28:52.800Z,17.16
2023-05-10T09:31:19.737Z,16.52
2023-05-10T09:33:48.142Z,16.41
2023-05-10T09:36:15.684Z,15.69
2023-05-10T09:38:54.594Z,15.56
2023-05-10T09:41:23.548Z,15.68
2023-05-10T09:43:50.761Z,16.10
2023-05-10T09:46:17.718Z,16.98
2023-05-10T09:48:48.744Z,16.72
2023-05-10T09:51:23.041Z,16.47
2023-05-10T09:53:51.644Z,16.23
2023-05-10T09:56:36.512Z,15.75
2023-05-10T09:59:04.209Z,15.42
2023-05-10T10:01:31.420Z,16.12
2023-05-10T10:03:59.253Z,16.39
2023-05-10T10:06:30.027Z,16.12
2023-05-10T10:08:57.766Z,16.30
2023-05-10T10:11:25.157Z,17.02
2023-05-10T10:13:51.937Z,17.13
2023-05-10T10:16:19.117Z,17.10
2023-05-10T10:18:45.886Z,17.23
2023-05-10T10:21:15.694Z,17.97
2023-05-10T10:23:46.332Z,18.29
2023-05-10T10:26:14.464Z,18.67
2023-05-10T10:28:58.614Z,17.35
2023-05-10T10:31:43.904Z,16.90
2023-05-10T10:34:32.734Z,16.24
2023-05-10T10:37:07.780Z,15.61
2023-05-10T10:39:37.663Z,15.46
2023-05-10T10:42:05.930Z,15.38
2023-05-10T10:44:35.395Z,16.22
2023-05-10T10:47:19.706Z,17.45
2023-05-10T10:50:14.422Z,17.58
2023-05-10T10:52:42.183Z,17.14
2023-05-10T10:55:13.577Z,16.96
2023-05-10T10:58:01.086Z,17.43
2023-05-10T11:00:34.722Z,17.63
2023-05-10T11:03:10.436Z,17.24
2023-05-10T11:05:46.910Z,17.54
2023-05-10T11:08:35.131Z,17.13
2023-05-10T11:11:08.902Z,17.13
2023-05-10T11:13:39.813Z,17.17
2023-05-10T11:16:26.476Z,17.76
2023-05-10T11:19:04.533Z,17.85
2023-05-10T11:21:32.535Z,18.03
2023-05-10T11:24:01.177Z,18.15
2023-05-10T11:26:36.106Z,18.88
2023-05-10T11:29:06.609Z,16.60
2023-05-10T11:31:34.231Z,17.15
2023-05-10T11:34:05.909Z,16.63
2023-05-10T11:36:38.044Z,15.95
2023-05-10T11:39:06.101Z,16.07
2023-05-10T11:41:33.664Z,16.14
2023-05-10T11:44:01.123Z,16.85
2023-05-10T11:46:29.888Z,16.44
2023-05-10T11:49:03.046Z,16.97
2023-05-10T11:51:29.938Z,17.32
2023-05-10T11:53:58.868Z,18.03
2023-05-10T11:56:28.899Z,19.12
2023-05-10T11:58:58.249Z,19.13
2023-05-10T12:01:27.782Z,19.81
2023-05-10T12:03:56.074Z,20.06
2023-05-10T12:06:23.177Z,20.35
2023-05-10T12:08:56.554Z,20.65
2023-05-10T12:11:26.861Z,20.11
2023-05-10T12:13:54.159Z,19.62
2023-05-10T12:16:26.812Z,19.69
2023-05-10T12:18:57.583Z,19.40
2023-05-10T12:21:25.083Z,19.78
2023-05-10T12:23:53.442Z,20.32
2023-05-10T12:26:25.959Z,20.88
2023-05-10T12:28:54.073Z,21.71
2023-05-10T12:31:21.809Z,20.99
2023-05-10T12:33:50.513Z,21.08
2023-05-10T12:36:17.783Z,20.71
2023-05-10T12:38:49.032Z,21.20
2023-05-10T12:41:17.713Z,21.74
2023-05-10T12:43:46.541Z,21.63
2023-05-10T12:46:15.455Z,21.51
2023-05-10T12:48:44.220Z,21.35
2023-05-10T12:51:13.303Z,20.23
2023-05-10T12:53:43.425Z,20.11
2023-05-10T12:56:11.521Z,20.41
2023-05-10T12:58:39.115Z,20.38
2023-05-10T13:01:06.669Z,21.11
2023-05-10T13:03:33.474Z,20.82
2023-05-10T13:06:00.237Z,21.82
2023-05-10T13:08:27.043Z,22.44
2023-05-10T13:10:54.222Z,21.93
2023-05-10T13:13:21.138Z,21.12
2023-05-10T13:15:47.844Z,20.74
2023-05-10T13:18:14.584Z,20.55
2023-05-10T13:20:41.728Z,20.59
2023-05-10T13:23:08.410Z,21.35
2023-05-10T13:25:35.446Z,22.44
2023-05-10T13:28:03.160Z,21.52
2023-05-10T13:30:29.927Z,21.78
2023-05-10T13:32:56.673Z,22.43
2023-05-10T13:35:23.546Z,22.23
2023-05-10T13:37:50.286Z,22.80
2023-05-10T13:40:18.197Z,22.79
2023-05-10T13:42:45.112Z,22.68
2023-05-10T13:45:14.271Z,22.73
2023-05-10T13:47:41.283Z,22.22
2023-05-10T13:50:08.903Z,22.04
2023-05-10T13:52:36.393Z,22.40
2023-05-10T13:55:03.856Z,23.08
2023-05-10T13:57:31.490Z,23.28
2023-05-10T13:59:58.944Z,22.89
2023-05-10T14:02:26.449Z,23.32
2023-05-10T14:04:53.407Z,22.42
2023-05-10T14:07:20.493Z,23.15
2023-05-10T14:09:47.630Z,23.16
2023-05-10T14:12:15.701Z,23.30
2023-05-10T14:14:42.586Z,24.62
2023-05-10T14:17:12.010Z,25.08
2023-05-10T14:19:39.996Z,25.54
2023-05-10T14:22:07.172Z,25.00
2023-05-10T14:24:34.022Z,25.12
2023-05-10T14:27:01.383Z,25.67
2023-05-10T14:29:28.527Z,26.15
2023-05-10T14:31:55.543Z,26.32
2023-05-10T14:34:22.575Z,26.66
2023-05-10T14:36:49.700Z,26.65
2023-05-10T14:39:16.775Z,26.96
2023-05-10T14:41:45.626Z,27.08
2023-05-10T14:44:12.598Z,27.40
2023-05-10T14:46:40.460Z,28.36
2023-05-10T14:49:07.502Z,28.11
2023-05-10T14:51:34.322Z,28.11
2023-05-10T14:54:01.825Z,27.42
2023-05-10T14:56:29.000Z,27.45
2023-05-10T14:58:56.764Z,27.70
2023-05-10T15:01:24.658Z,27.73
2023-05-10T15:03:52.135Z,28.19
2023-05-10T15:06:26.410Z,27.82
2023-05-10T15:08:53.778Z,28.13
2023-05-10T15:11:21.682Z,27.20
2023-05-10T15:13:48.837Z,27.48
2023-05-10T15:16:15.886Z,27.14
2023-05-10T15:18:42.834Z,27.16
2023-05-10T15:21:11.178Z,27.77
2023-05-10T15:23:38.956Z,27.67
2023-05-10T15:26:06.435Z,27.33
2023-05-10T15:28:34.562Z,27.27
2023-05-10T15:31:02.017Z,27.53
2023-05-10T15:33:30.296Z,27.30
2023-05-10T15:35:57.295Z,28.09
2023-05-10T15:38:25.807Z,27.38
2023-05-10T15:40:58.086Z,27.58
2023-05-10T15:43:25.708Z,27.49
2023-05-10T15:45:53.306Z,28.37
2023-05-10T15:48:20.861Z,27.55
2023-05-10T15:50:48.126Z,27.77
2023-05-10T15:53:17.889Z,27.92
2023-05-10T15:55:45.092Z,27.90
2023-05-10T15:58:12.743Z,28.29
2023-05-10T16:00:40.508Z,28.20
2023-05-10T16:03:09.085Z,27.55
2023-05-10T16:05:39.983Z,27.41
2023-05-10T16:08:07.534Z,27.92
2023-05-10T16:10:34.689Z,27.56
2023-05-10T16:13:04.394Z,28.02
2023-05-10T16:15:32.082Z,28.02
2023-05-10T16:18:02.953Z,28.11
2023-05-10T16:20:30.201Z,28.42
2023-05-10T16:22:57.473Z,28.22
2023-05-10T16:25:24.253Z,28.70
2023-05-10T16:27:51.647Z,28.65
2023-05-10T16:30:21.302Z,29.00
2023-05-10T16:32:51.284Z,29.23
2023-05-10T16:35:19.154Z,28.73
2023-05-10T16:37:46.539Z,28.44
2023-05-10T16:40:14.311Z,29.01
2023-05-10T16:42:42.115Z,29.15
2023-05-10T16:45:09.858Z,29.36
2023-05-10T16:47:38.217Z,28.49
2023-05-10T16:50:07.645Z,29.07
2023-05-10T16:52:35.580Z,29.28
2023-05-10T16:55:03.318Z,29.13
2023-05-10T16:57:30.873Z,29.29
2023-05-10T16:59:57.605Z,29.17
2023-05-10T17:02:24.416Z,29.63
2023-05-10T17:04:53.172Z,29.25
2023-05-10T17:07:19.821Z,29.41
2023-05-10T17:09:46.788Z,29.72
2023-05-10T17:12:13.457Z,30.19
2023-05-10T17:14:40.163Z,30.14
2023-05-10T17:17:07.052Z,30.32
2023-05-10T17:19:33.864Z,31.42
2023-05-10T17:22:00.766Z,30.83
2023-05-10T17:24:29.714Z,31.13
2023-05-10T17:26:57.444Z,32.13
2023-05-10T17:29:24.346Z,31.51
2023-05-10T17:31:51.103Z,31.46
2023-05-10T17:34:18.512Z,31.92
2023-05-10T17:36:47.036Z,31.96
2023-05-10T17:39:16.528Z,32.02
2023-05-10T17:41:43.948Z,32.28
2023-05-10T17:44:13.455Z,32.63
2023-05-10T17:46:40.419Z,33.26
2023-05-10T17:49:08.243Z,33.31
2023-05-10T17:51:35.883Z,33.24
2023-05-10T17:54:03.682Z,33.28
2023-05-10T17:56:33.153Z,33.62
2023-05-10T17:59:00.500Z,33.66
2023-05-10T18:01:27.965Z,33.94
2023-05-10T18:03:59.467Z,34.28
2023-05-10T18:06:27.074Z,34.26
2023-05-10T18:08:54.575Z,34.97
2023-05-10T18:11:22.493Z,35.07
2023-05-10T18:13:51.412Z,35.13
2023-05-10T18:16:18.704Z,35.50
2023-05-10T18:18:45.396Z,35.46
2023-05-10T18:21:12.589Z,36.04
2023-05-10T18:23:39.584Z,36.70
2023-05-10T18:26:08.477Z,37.20
2023-05-10T18:28:35.978Z,37.20
2023-05-10T18:31:03.512Z,37.77
2023-05-10T18:33:30.846Z,37.51
2023-05-10T18:35:57.988Z,38.02
2023-05-10T18:38:24.757Z,38.36
2023-05-10T18:40:51.787Z,38.71
2023-05-10T18:43:18.739Z,38.95
2023-05-10T18:45:45.588Z,39.01
2023-05-10T18:48:12.361Z,39.66
2023-05-10T18:50:39.456Z,39.56
2023-05-10T18:53:06.136Z,39.91
2023-05-10T18:55:32.861Z,40.78
2023-05-10T18:57:59.489Z,40.68
2023-05-10T19:00:26.376Z,41.18
2023-05-10T19:02:53.689Z,40.88
2023-05-10T19:05:20.683Z,41.85
2023-05-10T19:07:47.716Z,41.86
2023-05-10T19:10:15.213Z,42.04
2023-05-10T19:12:41.959Z,42.20
2023-05-10T19:15:09.770Z,41.99
2023-05-10T19:17:38.873Z,42.01
2023-05-10T19:20:07.976Z,42.13
2023-05-10T19:22:47.101Z,42.42
2023-05-10T19:25:21.899Z,42.72
2023-05-10T19:27:48.705Z,43.16
2023-05-10T19:30:15.542Z,43.23
2023-05-10T19:32:44.484Z,43.28
2023-05-10T19:35:13.730Z,43.71
2023-05-10T19:37:45.910Z,43.41
2023-05-10T19:40:16.034Z,44.41
2023-05-10T19:42:42.933Z,45.40
2023-05-10T19:45:10.498Z,46.09
2023-05-10T19:47:37.389Z,46.03
2023-05-10T19:50:04.558Z,46.15
2023-05-10T19:52:31.184Z,46.03
2023-05-10T19:54:57.862Z,46.09
2023-05-10T19:57:24.584Z,46.34
2023-05-10T19:59:51.144Z,47.13
2023-05-10T20:02:17.719Z,47.12
2023-05-10T20:04:45.020Z,47.03
2023-05-10T20:07:12.401Z,48.16
2023-05-10T20:09:39.598Z,48.11
2023-05-10T20:12:06.476Z,47.80
2023-05-10T20:14:33.321Z,47.79
2023-05-10T20:17:00.047Z,47.90
2023-05-10T20:19:26.838Z,48.44
2023-05-10T20:21:56.108Z,47.81
2023-05-10T20:24:23.460Z,47.65
2023-05-10T20:26:50.355Z,48.28
2023-05-10T20:29:17.180Z,47.95
2023-05-10T20:31:43.927Z,48.56
2023-05-10T20:34:10.929Z,47.87
2023-05-10T20:36:38.355Z,48.28
2023-05-10T20:39:05.467Z,48.49
2023-05-10T20:41:32.204Z,48.97
2023-05-10T20:44:00.687Z,48.57
2023-05-10T20:46:27.928Z,48.95
2023-05-10T20:48:54.798Z,48.71
2023-05-10T20:51:21.689Z,48.73
2023-05-10T20:53:48.313Z,48.93
2023-05-10T20:56:15.114Z,48.98
2023-05-10T20:58:41.831Z,49.14
2023-05-10T21:01:08.656Z,48.83
2023-05-10T21:03:35.831Z,48.96
2023-05-10T21:06:02.516Z,48.99
2023-05-10T21:08:29.196Z,49.06
2023-05-10T21:10:56.286Z,48.74
2023-05-10T21:13:23.184Z,49.23
2023-05-10T21:15:50.026Z,49.50
2023-05-10T21:18:16.815Z,49.55
2023-05-10T21:20:43.475Z,49.73
2023-05-10T21:23:09.984Z,49.77
2023-05-10T21:25:37.578Z,49.69
2023-05-10T21:28:04.250Z,49.55
2023-05-10T21:30:30.892Z,49.41
2023-05-10T21:32:59.859Z,49.78
2023-05-10T21:35:26.780Z,49.93
2023-05-10T21:37:53.342Z,49.79
2023-05-10T21:40:20.316Z,49.69
2023-05-10T21:42:49.467Z,49.67
2023-05-10T21:45:17.174Z,49.99
2023-05-10T21:47:44.137Z,50.24
2023-05-10T21:50:11.920Z,50.35
2023-05-10T21:52:39.153Z,50.39
2023-05-10T21:55:06.608Z,50.28
2023-05-10T21:57:33.169Z,50.28
2023-05-10T21:59:59.797Z,50.87
2023-05-10T22:02:26.574Z,51.03
2023-05-10T22:04:53.264Z,51.05
2023-05-10T22:07:19.895Z,51.46
2023-05-10T22:09:46.510Z,51.19
2023-05-10T22:12:13.216Z,51.25
2023-05-10T22:14:39.776Z,51.65
2023-05-10T22:17:06.408Z,52.02
2023-05-10T22:19:33.009Z,52.18
2023-05-10T22:21:59.535Z,52.48
2023-05-10T22:24:26.333Z,52.41
2023-05-10T22:26:56.160Z,52.70
2023-05-10T22:29:24.114Z,52.54
2023-05-10T22:31:50.790Z,52.50
2023-05-10T22:34:18.721Z,52.69
2023-05-10T22:36:45.478Z,53.18
2023-05-10T22:39:12.232Z,53.22
2023-05-10T22:41:38.760Z,53.21
2023-05-10T22:44:05.360Z,52.90
2023-05-10T22:46:32.996Z,52.83
2023-05-10T22:48:59.745Z,53.25
2023-05-10T22:51:26.543Z,53.66
2023-05-10T22:53:53.016Z,53.59
2023-05-10T22:56:21.853Z,53.39
2023-05-10T22:58:49.442Z,53.84
2023-05-10T23:01:16.124Z,54.10
2023-05-10T23:03:42.789Z,54.64
2023-05-10T23:06:09.345Z,55.09
2023-05-10T23:08:35.830Z,54.70
2023-05-10T23:11:02.460Z,54.77
2023-05-10T23:13:29.016Z,54.33
2023-05-10T23:15:55.618Z,55.08
2023-05-10T23:18:22.287Z,55.33
2023-05-10T23:20:48.889Z,55.66
2023-05-10T23:23:15.802Z,55.21
2023-05-10T23:25:42.305Z,55.65
2023-05-10T23:28:08.845Z,55.95
2023-05-10T23:30:35.675Z,55.39
2023-05-10T23:33:02.266Z,56.11
2023-05-10T23:35:28.916Z,55.69
2023-05-10T23:37:55.658Z,55.87
2023-05-10T23:40:22.582Z,56.35
2023-05-10T23:42:49.149Z,56.06
2023-05-10T23:45:16.111Z,56.65
2023-05-10T23:47:42.701Z,56.35
2023-05-10T23:50:10.091Z,56.73
2023-05-10T23:52:36.650Z,56.53
2023-05-10T23:55:03.614Z,55.92
2023-05-10T23:57:30.218Z,56.10
2023-05-10T23:59:56.712Z,56.32
